Main page
METAR-TAF:

METAR-TAF

Airports :

Ingeniero Aeronáutico Ambrosio L.V. Taravella International Airport

Córdoba, Argentina

latitude: 31-19S, longitude: 064-13W, elevation: 484 m

Current weather observation

The report was made 38 minutes ago, at 16:00 UTC
Wind 5 kt from the East, varying between North/Northeast and South/Southeast
Temperature 19°C
Humidity 26%
Pressure 1020 hPa
Visibility 10 km or more
no clouds below 1500 m and no cumulonimbus

METAR: SACO 151600Z 09005KT 030V150 CAVOK 19/M01 Q1020 NOSIG

Time: 13:38 (16:38 UTC)

Forecast

The report was made 5 hours and 38 minutes ago, at 11:00 UTC
Forecast valid from 15 at 12 UTC to 16 at 12 UTC
Wind 5 kt from the North/Northwest
Visibility 10 km or more
no clouds below 1500 m and no cumulonimbus
Becoming
from 15 at 15 UTC to 15 at 18 UTC
Wind 5 kt from the East
Becoming
from 16 at 03 UTC to 16 at 06 UTC
Wind 5 kt from the South/Southwest

TAF: SACO 151100Z 1512/1612 33005KT CAVOK TX20/1519Z TN09/1610Z BECMG 1515/1518 09005KT BECMG 1603/1606 21005KT

Weather observations and forecasts of more than 4000 airports (METAR and TAF reports).

The available stations are represented by yellow and red dots on the map.

Hover mouse over dot to see the name of the station.

Then click to see weather observations and forecasts.

To change the map : click on the green buttons with a black cross to zoom in, on the green button with a dash to zoom out, or on the green arrows for adjacent maps.


METAR-TAF: